Hong Kong Bridge — 9V8128 — position and weather

sailwx.info

Track history (hours):
 
Tides and Currents Weather Stations Pressure Air Temp Water Temp Dewpoint Dewpoint Depression Visibility Wind Speed Wind Dir Waves Ship Positions

Hong Kong Bridge

Last reported at 2017-Dec-10 04:40 UTC. Time now 2017-Dec-14 04:03 UTC.
Position N 41°20' E 140°15'.

Length 336 m; draft 11.2 m.

Type: Ship (hazmat cat D). MMSI: 565043000.

Date/timePositionNaut miles runAvg speedWind from/ knotsBaromVisibWave heightAir tempDewpointWater temp
2017-Dec-10 04:40N 41°20' E 140°15'419.7
2017-Dec-10 04:29N 41°22' E 140°20'919.6
2017-Dec-10 04:00N 41°28' E 140°30'917.3
2017-Dec-10 03:30N 41°33' E 140°39'613.1
2017-Dec-10 03:00N 41°37' E 140°46'1019.1
2017-Dec-10 02:31N 41°39' E 140°58'1121.2
2017-Dec-10 02:00N 41°39' E 141°13'1021.2
2017-Dec-10 01:31N 41°39' E 141°27'1020.1
2017-Dec-10 01:00N 41°39' E 141°40'  
2017-Nov-30 22:15N 37°19' W 126°23'721.4
2017-Nov-30 21:56N 37°19' W 126°15'2820.8
2017-Nov-30 20:36N 37°22' W 125°40'220.8
2017-Nov-30 20:30N 37°22' W 125°38'1020.5
2017-Nov-30 20:00N 37°23' W 125°25'1020.1
2017-Nov-30 19:30N 37°24' W 125°12'1019.4
2017-Nov-30 19:00N 37°25' W 125°00'1019.7
2017-Nov-30 18:30N 37°26' W 124°48'1019.7
2017-Nov-30 18:00N 37°26' W 124°36'1019.7
2017-Nov-30 17:30N 37°28' W 124°23'1019.8
2017-Nov-30 17:00N 37°29' W 124°11'3220.3
2017-Nov-30 15:26N 37°32' W 123°31'1520.6
2017-Nov-30 14:44N 37°34' W 123°13'520.4
2017-Nov-30 14:30N 37°34' W 123°07'1020.5
2017-Nov-30 14:00N 37°39' W 122°55'1219.0
2017-Nov-30 13:23N 37°45' W 122°43'411.1
2017-Nov-30 13:00N 37°46' W 122°38'612.3
2017-Nov-30 12:30N 37°49' W 122°31'510.6
2017-Nov-30 12:00N 37°50' W 122°24'3 6.8
2017-Nov-30 11:30N 37°49' W 122°20'0 0.3
2017-Nov-30 11:00N 37°49' W 122°20'0 0.0
2017-Nov-30 10:28N 37°49' W 122°20'0 0.0
2017-Nov-30 09:58N 37°49' W 122°20'0 0.0
2017-Nov-30 09:28N 37°49' W 122°20'0 0.0
2017-Nov-30 08:58N 37°49' W 122°20'0 0.0
2017-Nov-30 08:28N 37°49' W 122°20'0 0.0
2017-Nov-30 07:58N 37°49' W 122°20'0 0.0
2017-Nov-30 07:28N 37°49' W 122°20'0 0.0
2017-Nov-30 06:58N 37°49' W 122°20'0 0.0
2017-Nov-30 06:28N 37°49' W 122°20'0 0.0
2017-Nov-30 05:58N 37°49' W 122°20'0 0.0
2017-Nov-30 05:28N 37°49' W 122°20'0 0.0
2017-Nov-30 04:58N 37°49' W 122°20'  
Track history (hours):
 
Tides and Currents Weather Stations Pressure Air Temp Water Temp Dewpoint Dewpoint Depression Visibility Wind Speed Wind Dir Waves Ship Positions

Hong Kong Bridge

Last reported at 2017-Dec-10 04:40 UTC. Time now 2017-Dec-14 04:03 UTC.
Position N 41°20' E 140°15'.

Length 336 m; draft 11.2 m.

Type: Ship (hazmat cat D). MMSI: 565043000.

Date/timePositionNaut miles runAvg speedWind from/ knotsBaromVisibWave heightAir tempDewpointWater temp
2017-Dec-10 04:40N 41°20' E 140°15'419.7
2017-Dec-10 04:29N 41°22' E 140°20'919.6
2017-Dec-10 04:00N 41°28' E 140°30'917.3
2017-Dec-10 03:30N 41°33' E 140°39'613.1
2017-Dec-10 03:00N 41°37' E 140°46'1019.1
2017-Dec-10 02:31N 41°39' E 140°58'1121.2
2017-Dec-10 02:00N 41°39' E 141°13'1021.2
2017-Dec-10 01:31N 41°39' E 141°27'1020.1
2017-Dec-10 01:00N 41°39' E 141°40'  
2017-Nov-30 22:15N 37°19' W 126°23'721.4
2017-Nov-30 21:56N 37°19' W 126°15'2820.8
2017-Nov-30 20:36N 37°22' W 125°40'220.8
2017-Nov-30 20:30N 37°22' W 125°38'1020.5
2017-Nov-30 20:00N 37°23' W 125°25'1020.1
2017-Nov-30 19:30N 37°24' W 125°12'1019.4
2017-Nov-30 19:00N 37°25' W 125°00'1019.7
2017-Nov-30 18:30N 37°26' W 124°48'1019.7
2017-Nov-30 18:00N 37°26' W 124°36'1019.7
2017-Nov-30 17:30N 37°28' W 124°23'1019.8
2017-Nov-30 17:00N 37°29' W 124°11'3220.3
2017-Nov-30 15:26N 37°32' W 123°31'1520.6
2017-Nov-30 14:44N 37°34' W 123°13'520.4
2017-Nov-30 14:30N 37°34' W 123°07'1020.5
2017-Nov-30 14:00N 37°39' W 122°55'1219.0
2017-Nov-30 13:23N 37°45' W 122°43'411.1
2017-Nov-30 13:00N 37°46' W 122°38'612.3
2017-Nov-30 12:30N 37°49' W 122°31'510.6
2017-Nov-30 12:00N 37°50' W 122°24'3 6.8
2017-Nov-30 11:30N 37°49' W 122°20'0 0.3
2017-Nov-30 11:00N 37°49' W 122°20'0 0.0
2017-Nov-30 10:28N 37°49' W 122°20'0 0.0
2017-Nov-30 09:58N 37°49' W 122°20'0 0.0
2017-Nov-30 09:28N 37°49' W 122°20'0 0.0
2017-Nov-30 08:58N 37°49' W 122°20'0 0.0
2017-Nov-30 08:28N 37°49' W 122°20'0 0.0
2017-Nov-30 07:58N 37°49' W 122°20'0 0.0
2017-Nov-30 07:28N 37°49' W 122°20'0 0.0
2017-Nov-30 06:58N 37°49' W 122°20'0 0.0
2017-Nov-30 06:28N 37°49' W 122°20'0 0.0
2017-Nov-30 05:58N 37°49' W 122°20'0 0.0
2017-Nov-30 05:28N 37°49' W 122°20'0 0.0
2017-Nov-30 04:58N 37°49' W 122°20'  

Dump ship's entire track history